Martín Lombardi

Chefscout - Gimnasia y Tiro
19 Aug 2027
Donnerstag
Verarbeitung

Persönlichkeit

Anpassungsfähigkeit (7) Ehrgeiz (2) Kontroverse (15) Loyalität (6) Druck (8) Professionalität (2) Fairness (5) Temperament (15)

Profil

Trainerstil Demokratisch
Lizenz Nationale A
Entschlossenheit 3
Menschenführung 2
Motivation 5
Disziplin 7
Arbeitszufriedenheit
100%
Ermüdung
0%
Rolle Chefscout
Gehalt 19.2K p/W
Vertrag 14.03.2029

Leistung

Verhalten Gut
Trainingseffektivität
15%
Spielerentwicklung
15%
Verletzungsprävention
20%
Taktische Umsetzung
5%

Letzte Ereignisse

Nahm an einer Scouting-Besprechung teil 14T her
Nahm an einer Scouting-Besprechung teil 21T her
Nahm an einer Scouting-Besprechung teil 21T her
Nahm an einer Scouting-Besprechung teil 28T her
Nahm an einer Scouting-Besprechung teil 28T her
Nahm an einer Scouting-Besprechung teil 35T her
Nahm an einer Scouting-Besprechung teil 35T her
Nahm an einer Scouting-Besprechung teil 42T her

Aktuell beobachtet

209
Spieler Verein Status Fähigkeit Vertrauen Beobachtet Zuletzt beobachtet Letzte Stimme
Manuel Duarte Barracas Central Aktiv 130 / 126 40% 2 29.11.2026 -
Rafael Sánchez Aragua Aktiv 102 / 92 40% 1 29.11.2026 -
Juan Bobba Estudiantes de Caracas Aktiv 103 / 93 40% 3 28.11.2026 -
Diego Duarte River Plate Aktiv 81 / 69 40% 1 28.11.2026 -
Piero Quispe Universitario Aktiv 124 / 106 40% 1 27.11.2026 -
Ángel González Libertad Aktiv 91 / 109 40% 1 27.11.2026 -
Yulián Montaño Depor Aktiv 71 / 69 40% 1 27.11.2026 -
Nicolas Hurtado La Equidad Aktiv 99 / 116 40% 2 25.11.2026 -
Samuel Lucero Defensa y Justicia Aktiv 95 / 122 40% 2 25.11.2026 -
Abel Bustos Racing Aktiv 109 / 126 40% 2 25.11.2026 -
Juan Francisco Rossel Universidad Catolica Aktiv 100 / 104 40% 1 25.11.2026 -
Alexei Dominguez Pachuca Aktiv 126 / 124 40% 5 24.11.2026 -
Siro Rosané Estudiantes Aktiv 108 / 125 40% 2 23.11.2026 Mehr Infos nötig
Agustín Pérez Deportivo Tachira Aktiv 97 / 99 40% 1 23.11.2026 -
Juan David Sánchez Deportivo Tachira Aktiv 112 / 95 40% 1 22.11.2026 -
Hércules Fluminense Aktiv 144 / 119 40% 1 22.11.2026 -
Francisco Borda Central Norte Aktiv 103 / 102 40% 1 21.11.2026 -
Juan Orellana San Martín Aktiv 117 / 114 40% 2 20.11.2026 -
Ezequiel Neira Carabobo Aktiv 103 / 124 40% 1 20.11.2026 -
Federico Navarro Rosario Central Aktiv 137 / 124 40% 1 19.11.2026 -
Mathías Silvera Chaco For Ever Aktiv 109 / 104 40% 1 19.11.2026 -
Randall Rodríguez River Plate Aktiv 108 / 119 40% 1 18.11.2026 -
Nicolás Retamar Ferro Carril Oeste Aktiv 100 / 119 40% 1 15.11.2026 -
Marcos Machado Mitre Aktiv 103 / 115 40% 1 15.11.2026 -
Javier Martínez Almirante Brown Aktiv 110 / 97 40% 1 15.11.2026 -
Federico Bisanz Atlanta Aktiv 106 / 111 40% 1 14.11.2026 -
Matías Montero Madryn Aktiv 102 / 93 40% 1 14.11.2026 -
Franco Rivasseau Patronato Aktiv 95 / 103 40% 1 14.11.2026 -
Jorge Espejo Universidad de Concepcion Aktiv 104 / 121 40% 3 13.11.2026 -
Gonzalo Flores Almirante Brown Aktiv 101 / 115 40% 2 13.11.2026 -
Tomás O'Connor Gimnasia y Esgrima Aktiv 127 / 135 40% 1 13.11.2026 -
Juan Luis Alfaro Banfield Aktiv 98 / 102 40% 1 11.11.2026 -
José Rivera Universitario Aktiv 97 / 116 40% 2 10.11.2026 -
Fernando Duré Estudiantes Aktiv 116 / 118 40% 3 10.11.2026 -
Agustín Dattola Almirante Brown Aktiv 133 / 125 40% 1 10.11.2026 -
Lucas Ruiz Ferro Carril Oeste Aktiv 120 / 100 40% 1 09.11.2026 -
Elías Villar Nacional Aktiv 74 / 98 40% 1 08.11.2026 -
Lautaro Petruchi Gimnasia y Esgrima Aktiv 115 / 120 40% 1 08.11.2026 -
Facundo Ardiles Estudiantes Aktiv 96 / 115 40% 1 08.11.2026 -
Nicolás Heiz Maipú Aktiv 107 / 94 40% 1 08.11.2026 -
Nahuel Barrios San Lorenzo Aktiv 136 / 127 40% 1 07.11.2026 -
Maren Haile-Selassie Chicago Fire Aktiv 131 / 113 40% 1 07.11.2026 -
Gianfranco Chávez Alianza Lima Aktiv 100 / 108 40% 1 07.11.2026 -
Duván Mósquera Aguilas Doradas Aktiv 90 / 103 40% 2 05.11.2026 -
Kleyder Barreto Mineros de Guayana Aktiv 102 / 104 40% 1 05.11.2026 -
Yvo Calleros Madryn Aktiv 123 / 97 40% 1 04.11.2026 -
Santiago Gutiérrez Alvarado Aktiv 115 / 117 40% 1 04.11.2026 -
Andres Lioi Chaco For Ever Aktiv 126 / 116 40% 1 03.11.2026 -
Rubén Arellano Santa Cruz Aktiv 76 / 90 40% 1 03.11.2026 -
Santiago Rodríguez Gimnasia y Esgrima Aktiv 104 / 127 40% 3 02.11.2026 -
Martín Garnerone Estudiantes Aktiv 122 / 105 40% 1 02.11.2026 -
Diego Méndez Tacuarembo Aktiv 99 / 82 40% 1 01.11.2026 -
Gaspar Duarte Rosario Central Aktiv 131 / 116 40% 1 01.11.2026 -
Brian Calderara Chacarita Juniors Aktiv 130 / 117 40% 2 31.10.2026 -
Jero Minnesota United FC Aktiv 102 / 107 40% 1 31.10.2026 -
Gianluca Pugliese Güemes Aktiv 95 / 107 40% 1 31.10.2026 -
Juan Manuel Jorge Defensor Sporting Aktiv 100 / 111 40% 3 30.10.2026 -
Facundo Heredia Patronato Aktiv 108 / 106 40% 2 29.10.2026 -
Marcos Enrique Tristán Suárez Aktiv 94 / 97 40% 2 29.10.2026 -
Juan José Cardozo Argentinos Juniors Aktiv 98 / 122 40% 1 28.10.2026 -
Germán Guiffrey Gimnasia y Esgrima Aktiv 132 / 111 40% 1 28.10.2026 Mehr Infos nötig
Mauricio Márquez Caracas Aktiv 117 / 90 40% 4 27.10.2026 -
Luis Olivera Defensores Unidos Aktiv 111 / 106 40% 1 27.10.2026 -
Philippe Ndinga Philadelphia Union Aktiv 106 / 136 40% 2 26.10.2026 -
Nicolás Laméndola Atlético Tucumán Aktiv 123 / 120 40% 1 25.10.2026 -
Gastón Benedetti Estudiantes Aktiv 114 / 136 40% 2 24.10.2026 -
Vicente Pizarro Rosario Central Aktiv 119 / 128 40% 1 24.10.2026 -
Agustín Lastra Estudiantes Aktiv 109 / 109 40% 1 23.10.2026 -
Johan Madrid Sporting Cristal Aktiv 108 / 110 40% 1 22.10.2026 -
Matías Kabalín Ferro Carril Oeste Aktiv 107 / 117 40% 1 22.10.2026 -
Emmanuel Sabbi Vancouver Whitecaps Aktiv 131 / 107 40% 1 21.10.2026 -
Franco Díaz Temperley Aktiv 108 / 125 40% 1 20.10.2026 -
Santiago Sala Güemes Aktiv 116 / 113 40% 1 17.10.2026 -
Thomas Ortega Quilmes Aktiv 122 / 110 40% 2 16.10.2026 -
Sergio Sulbarán Zamora Aktiv 85 / 95 40% 1 16.10.2026 -
Iván Chaves Patronato Aktiv 85 / 103 40% 1 15.10.2026 -
Carlos Alvarez Veracruz Aktiv 71 / 89 40% 1 14.10.2026 -
Matías Samaniego Talleres Aktiv 110 / 106 40% 1 13.10.2026 -
Agustín Solari 12 de Octubre Aktiv 92 / 96 40% 1 13.10.2026 -
Waldo Madrid Queretaro Aktiv 100 / 98 40% 1 12.10.2026 -
Ramiro Hernandes Belgrano Aktiv 103 / 137 40% 1 12.10.2026 -
Bruno Palazzo Nueva Chicago Aktiv 130 / 108 40% 1 12.10.2026 -
Walter Juárez Güemes Aktiv 126 / 117 40% 1 12.10.2026 -
Miguel Acosta Argentinos Juniors Aktiv 95 / 99 40% 1 11.10.2026 -
Federico Sena Estudiantes Aktiv 124 / 115 40% 1 09.10.2026 -
Valentín Serrano Arsenal Aktiv 102 / 102 40% 1 09.10.2026 -
Victor Moreno Llaneros Aktiv 102 / 95 40% 1 09.10.2026 -
Tomás Giménez Gimnasia y Esgrima Aktiv 96 / 112 40% 1 08.10.2026 -
Juan Fernando Alfaro Olimpia Aktiv 117 / 123 40% 2 05.10.2026 -
Carlos Gugenheim Almirante Brown Aktiv 95 / 108 40% 1 05.10.2026 -
Martín Campos Ferro Carril Oeste Aktiv 120 / 129 40% 1 05.10.2026 -
Esteven Salguero Patriotas Aktiv 100 / 90 40% 1 04.10.2026 -
Tobías Leiva Estudiantes Aktiv 98 / 129 40% 1 04.10.2026 -
Adolfo Gaich Estudiantes Aktiv 99 / 126 40% 1 03.10.2026 -
Oscar Savarino Llaneros Aktiv 81 / 89 40% 1 03.10.2026 -
Moisés Gallo Zulia Aktiv 95 / 100 40% 1 03.10.2026 -
Lautaro Blanco Boca Juniors Aktiv 108 / 124 40% 1 01.10.2026 -
Luis Rojas Universidad de Concepcion Aktiv 113 / 103 40% 1 30.09.2026 -
Lucio Castillo Colegiales Aktiv 105 / 104 40% 1 29.09.2026 -
Francisco Castillo Llaneros Aktiv 99 / 105 40% 1 28.09.2026 -
Facundo da Costa Cerro Largo Aktiv 95 / 101 40% 1 28.09.2026 -
Luciano Arriagada Huachipato Aktiv 108 / 100 40% 1 28.09.2026 -
Franco Vedoya Central Norte Aktiv 98 / 123 40% 1 27.09.2026 -
Armindo Sieb Los Angeles Football Club Aktiv 124 / 107 40% 1 27.09.2026 -
Isaac Boehmer Vancouver Whitecaps Aktiv 93 / 109 40% 2 26.09.2026 -
Héber García Portuguesa Aktiv 113 / 110 40% 1 26.09.2026 -
Nəriman Axundzadə Columbus Crew Aktiv 143 / 136 40% 1 25.09.2026 -
Francisco Salerno Defensores Unidos Aktiv 110 / 92 40% 1 25.09.2026 -
Zacarías López Iquique Aktiv 110 / 98 40% 1 24.09.2026 -
Fernando García Carabobo Aktiv 83 / 74 40% 1 23.09.2026 -
Joaquín Enrico San Telmo Aktiv 92 / 98 40% 1 23.09.2026 -
Iván Moreno Leon Aktiv 119 / 98 40% 2 22.09.2026 -
David Agudelo Depor Aktiv 96 / 105 40% 2 22.09.2026 -
Thiago Calone All Boys Aktiv 103 / 123 40% 3 22.09.2026 -
Agustín Módica Gimnasia y Esgrima Aktiv 132 / 123 40% 1 22.09.2026 -
Lucas Verza Olimpia Aktiv 97 / 101 40% 1 22.09.2026 -
Enzo Acosta Estudiantes Aktiv 107 / 106 40% 1 21.09.2026 -
Juan Yangali San Telmo Aktiv 120 / 121 40% 1 21.09.2026 -
Erick Aguirre Monterrey Aktiv 149 / 116 40% 1 21.09.2026 -
Gino Santilli Banfield Aktiv 125 / 115 40% 1 19.09.2026 -
Axel Herrera Santiago Wanderers Aktiv 80 / 90 40% 1 18.09.2026 -
Edgar Zaldívar Atlas Aktiv 82 / 114 40% 1 18.09.2026 -
Rivaldo Lozano Atlas Aktiv 106 / 97 40% 1 18.09.2026 -
Elías Torres Racing Club Aktiv 102 / 118 40% 1 18.09.2026 -
Brayan Moreno Universidad de Chile Aktiv 125 / 103 40% 1 17.09.2026 -
Marcelo Miño Ferro Carril Oeste Aktiv 120 / 124 40% 1 17.09.2026 -
Jeferson Nolasco Cesar Vallejo Aktiv 100 / 84 40% 1 17.09.2026 -
Cristian Carbajal Alianza Lima Aktiv 121 / 110 40% 1 16.09.2026 -
Bastián Yáñez O'Higgins Aktiv 100 / 124 40% 1 15.09.2026 -
Kevin Palacios Santos Laguna Aktiv 98 / 110 40% 2 14.09.2026 -
Jeremy Márquez Cruz Azul Aktiv 120 / 127 40% 1 14.09.2026 -
Emiliano Ancheta Nacional Aktiv 108 / 121 40% 2 13.09.2026 -
Fernando Álvarez Deportivo Cali Aktiv 128 / 110 40% 1 13.09.2026 -
Nicolás Sosa La Luz Aktiv 95 / 100 40% 1 13.09.2026 -
Emiliano González Almagro Aktiv 100 / 116 40% 1 12.09.2026 -
Mauro Rodas Sportivo Trinidense Aktiv 97 / 79 40% 1 12.09.2026 -
Matías Tagliamonte Racing Club Aktiv 137 / 109 40% 1 11.09.2026 -
Santiago Godoy 12 de Octubre Aktiv 94 / 83 40% 1 11.09.2026 -
Kevin Pérez Junior Aktiv 101 / 120 40% 1 10.09.2026 -
Brayan Palmezano Deportivo Tachira Aktiv 83 / 107 40% 1 10.09.2026 -
Ezequiel Almirón Estudiantes Aktiv 94 / 106 40% 1 08.09.2026 -
Nahuel Soria Oriental Aktiv 84 / 100 40% 1 08.09.2026 -
Facundo Melillán Güemes Aktiv 95 / 118 40% 1 08.09.2026 -
Steven Pabón Trujillanos Aktiv 111 / 100 40% 1 08.09.2026 -
Andrés Sarmiento Atletico Nacional Aktiv 105 / 115 40% 1 06.09.2026 -
Neyder Moreno Atletico Nacional Aktiv 95 / 106 40% 1 06.09.2026 -
Sebastián Guzmán Deportes Tolima Aktiv 99 / 106 40% 1 05.09.2026 -
Franco González Penarol Aktiv 116 / 103 40% 1 05.09.2026 -
Miguel Núñez Toronto FC Aktiv 97 / 88 40% 1 05.09.2026 -
Sebastián Jaume Albion Aktiv 93 / 110 40% 1 05.09.2026 -
José Alvarado Leon Aktiv 126 / 105 40% 1 04.09.2026 -
Rodrigo Muníz Uruguay Montevideo Aktiv 93 / 99 40% 1 03.09.2026 -
Cristian Lima Uruguay Montevideo Aktiv 109 / 106 40% 1 02.09.2026 -
Rômulo Tigres Aktiv 109 / 129 40% 2 01.09.2026 -
Braian Vargas Rentistas Aktiv 101 / 97 40% 1 01.09.2026 -
Lucas Soto Colo-Colo Aktiv 115 / 113 40% 1 31.08.2026 -
Sebastián Urrea Deportivo Pereira Aktiv 84 / 98 40% 1 31.08.2026 -
Denis Olivera Danubio Aktiv 107 / 114 40% 1 31.08.2026 -
Dylan Lozano Aguilas Doradas Aktiv 120 / 109 40% 1 30.08.2026 -
Anthony Vilche Colon Aktiv 88 / 85 40% 1 30.08.2026 -
Sebastián Santos Leon Aktiv 103 / 103 40% 1 28.08.2026 -
Álvaro San Emeterio Tacuarembo Aktiv 83 / 102 40% 1 28.08.2026 -
Marcos Donato Atenas Aktiv 103 / 91 40% 1 27.08.2026 -
Ariel Gamarra Cerro Porteno Aktiv 103 / 122 40% 1 25.08.2026 -
Víctor Dávila Club America Aktiv 138 / 122 40% 1 25.08.2026 -
Roameth Romaña Llaneros Aktiv 97 / 104 40% 1 25.08.2026 -
Juan Pablo Noce All Boys Aktiv 119 / 97 40% 1 25.08.2026 -
Kleber Díaz Union Magdalena Aktiv 85 / 77 40% 1 24.08.2026 -
Orles Aragón Tigres Aktiv 92 / 91 40% 1 24.08.2026 -
Fabián Ángel Junior Aktiv 120 / 111 40% 1 24.08.2026 -
Aldahir Pérez Tijuana Aktiv 129 / 111 40% 1 23.08.2026 -
Rodrigo Cabrera River Plate Aktiv 79 / 105 40% 1 23.08.2026 -
Juan Camilo Mosquera Atletico Bucaramanga Aktiv 115 / 102 40% 1 22.08.2026 -
Lautaro Maldonado Instituto Aktiv 123 / 113 40% 1 22.08.2026 -
Lucas Machado Defensor Sporting Aktiv 112 / 89 40% 1 21.08.2026 -
Nicolás Rossi Juventud Aktiv 107 / 101 40% 1 21.08.2026 -
Ricardo Echeverría Santos Laguna Aktiv 137 / 124 40% 1 20.08.2026 -
Agustín Pereira Albion Aktiv 117 / 101 40% 1 19.08.2026 -
Diego Rossi Monterrey Aktiv 109 / 145 40% 2 18.08.2026 -
Jorge Murrugarra Universitario Aktiv 105 / 117 40% 1 18.08.2026 -
Bleiner Agrón Envigado Aktiv 89 / 95 40% 1 18.08.2026 -
Diego Núñez Colon Aktiv 109 / 95 40% 1 18.08.2026 -
José Juan Macías Pumas UNAM Aktiv 126 / 99 40% 1 17.08.2026 -
Ezequiel Busquets Montevideo City Torque Aktiv 101 / 105 40% 1 17.08.2026 -
Fernando Tapia Club America Aktiv 128 / 130 40% 1 16.08.2026 -
Andrés Macea Real Santander Aktiv 93 / 77 40% 1 15.08.2026 -
Hebert Vergara Liverpool Montevideo Aktiv 96 / 98 40% 1 14.08.2026 -
Kevin Chacón Barranquilla Aktiv 81 / 96 40% 1 14.08.2026 -
Luis Iberico Sporting Cristal Aktiv 115 / 107 40% 1 14.08.2026 -
Bryan Castrillón Independiente Medellin Aktiv 105 / 122 40% 1 14.08.2026 -
Fernando Camarda Central Espanol Aktiv 113 / 113 40% 1 13.08.2026 -
Gabriel Norambuena Union Espanola Aktiv 112 / 89 40% 1 13.08.2026 -
Marco Farfan Tigres Aktiv 95 / 99 40% 2 12.08.2026 -
Carlos Adrián Sánchez Pachuca Aktiv 128 / 101 40% 1 12.08.2026 -
Jhon Navia Junior Aktiv 96 / 115 40% 1 12.08.2026 -
Alexis Gutiérrez Club America Aktiv 118 / 140 40% 1 11.08.2026 -
Agustín Requena Progreso Aktiv 94 / 102 40% 1 11.08.2026 -
Nahuel Gómez Oriental Aktiv 86 / 86 40% 1 08.08.2026 -
Victor Cuadrado Universitario Popayan Aktiv 88 / 79 40% 1 07.08.2026 -
Edwin Cerrillo Club America Aktiv 104 / 98 40% 1 07.08.2026 -
Jhojan Torres Santa Fe Aktiv 125 / 118 40% 1 07.08.2026 -
Mauricio Cuevas Santos Laguna Aktiv 130 / 95 40% 1 06.08.2026 -
Ever Valencia Independiente Medellin Aktiv 130 / 103 40% 1 06.08.2026 -
Santiago Cartagena Deportivo Maldonado Aktiv 122 / 114 40% 1 05.08.2026 -
Álvaro Meléndez Real Cartagena Aktiv 120 / 111 40% 1 04.08.2026 -
Martín Marta Tacuarembo Aktiv 95 / 87 40% 1 03.08.2026 -
Rafael Sangiovani Metropolitanos Aktiv 122 / 111 40% 1 02.08.2026 -
Aldhy Valencia Cesar Vallejo Aktiv 94 / 86 40% 1 02.08.2026 -
Lucas Bruera Carabobo Aktiv 119 / 107 40% 1 02.08.2026 -